sensor_id;sensor_type;location;lat;lon;timestamp;temperature;humidity
59923;DHT22;45778;51.142;3.732;2023-07-29T00:00:40;17.10;99.90
59923;DHT22;45778;51.142;3.732;2023-07-29T00:03:05;17.10;99.90
59923;DHT22;45778;51.142;3.732;2023-07-29T00:05:31;17.10;99.90
59923;DHT22;45778;51.142;3.732;2023-07-29T00:07:57;17.10;99.90
59923;DHT22;45778;51.142;3.732;2023-07-29T00:10:23;17.10;99.90
59923;DHT22;45778;51.142;3.732;2023-07-29T00:12:48;17.00;99.90
59923;DHT22;45778;51.142;3.732;2023-07-29T00:15:14;17.00;99.90
59923;DHT22;45778;51.142;3.732;2023-07-29T00:17:39;17.00;99.90
59923;DHT22;45778;51.142;3.732;2023-07-29T00:20:06;16.90;99.90
59923;DHT22;45778;51.142;3.732;2023-07-29T00:22:32;16.90;99.90
59923;DHT22;45778;51.142;3.732;2023-07-29T00:24:58;16.90;99.90
59923;DHT22;45778;51.142;3.732;2023-07-29T00:27:25;16.90;99.90
59923;DHT22;45778;51.142;3.732;2023-07-29T00:29:50;16.80;99.90
59923;DHT22;45778;51.142;3.732;2023-07-29T00:32:16;16.90;99.90
59923;DHT22;45778;51.142;3.732;2023-07-29T00:34:42;16.80;99.90
59923;DHT22;45778;51.142;3.732;2023-07-29T00:37:08;16.70;99.90
59923;DHT22;45778;51.142;3.732;2023-07-29T00:39:33;16.70;99.90
59923;DHT22;45778;51.142;3.732;2023-07-29T00:41:59;16.70;99.90
59923;DHT22;45778;51.142;3.732;2023-07-29T00:44:25;16.70;99.90
59923;DHT22;45778;51.142;3.732;2023-07-29T00:46:52;16.70;99.90
59923;DHT22;45778;51.142;3.732;2023-07-29T00:49:20;16.70;99.90
59923;DHT22;45778;51.142;3.732;2023-07-29T00:51:46;16.60;99.90
59923;DHT22;45778;51.142;3.732;2023-07-29T00:54:13;16.70;99.90
59923;DHT22;45778;51.142;3.732;2023-07-29T00:56:40;16.70;99.90
59923;DHT22;45778;51.142;3.732;2023-07-29T00:59:06;16.60;99.90
59923;DHT22;45778;51.142;3.732;2023-07-29T01:01:31;16.60;99.90
59923;DHT22;45778;51.142;3.732;2023-07-29T01:03:57;16.70;99.90
59923;DHT22;45778;51.142;3.732;2023-07-29T01:06:53;16.70;99.90
59923;DHT22;45778;51.142;3.732;2023-07-29T01:09:37;16.60;99.90
59923;DHT22;45778;51.142;3.732;2023-07-29T01:12:27;16.80;99.90
59923;DHT22;45778;51.142;3.732;2023-07-29T01:17:59;16.70;99.90
59923;DHT22;45778;51.142;3.732;2023-07-29T01:20:33;16.70;99.90
59923;DHT22;45778;51.142;3.732;2023-07-29T01:22:59;16.60;99.90
59923;DHT22;45778;51.142;3.732;2023-07-29T01:25:24;16.60;99.90
59923;DHT22;45778;51.142;3.732;2023-07-29T01:27:51;16.70;99.90
59923;DHT22;45778;51.142;3.732;2023-07-29T01:30:18;16.60;99.90
59923;DHT22;45778;51.142;3.732;2023-07-29T01:32:56;16.60;99.90
59923;DHT22;45778;51.142;3.732;2023-07-29T01:35:31;16.70;99.90
59923;DHT22;45778;51.142;3.732;2023-07-29T01:38:18;16.60;99.90
59923;DHT22;45778;51.142;3.732;2023-07-29T01:40:46;16.70;99.90
59923;DHT22;45778;51.142;3.732;2023-07-29T01:43:12;16.70;99.90
59923;DHT22;45778;51.142;3.732;2023-07-29T01:45:39;16.80;99.90
59923;DHT22;45778;51.142;3.732;2023-07-29T01:48:05;16.80;99.90
59923;DHT22;45778;51.142;3.732;2023-07-29T01:50:31;16.80;99.90
59923;DHT22;45778;51.142;3.732;2023-07-29T01:53:00;16.80;99.90
59923;DHT22;45778;51.142;3.732;2023-07-29T01:55:25;16.90;99.90
59923;DHT22;45778;51.142;3.732;2023-07-29T01:57:51;16.90;99.90
59923;DHT22;45778;51.142;3.732;2023-07-29T02:00:18;16.90;99.90
59923;DHT22;45778;51.142;3.732;2023-07-29T02:02:45;16.90;99.90
59923;DHT22;45778;51.142;3.732;2023-07-29T02:05:10;16.90;99.90
59923;DHT22;45778;51.142;3.732;2023-07-29T02:07:36;16.90;99.90
59923;DHT22;45778;51.142;3.732;2023-07-29T02:10:02;16.80;99.90
59923;DHT22;45778;51.142;3.732;2023-07-29T02:12:28;16.80;99.90
59923;DHT22;45778;51.142;3.732;2023-07-29T02:14:53;16.80;99.90
59923;DHT22;45778;51.142;3.732;2023-07-29T02:17:19;16.90;99.90
59923;DHT22;45778;51.142;3.732;2023-07-29T02:19:45;16.80;99.90
59923;DHT22;45778;51.142;3.732;2023-07-29T02:22:13;16.80;99.90
59923;DHT22;45778;51.142;3.732;2023-07-29T02:24:39;16.80;99.90
59923;DHT22;45778;51.142;3.732;2023-07-29T02:27:05;16.80;99.90
59923;DHT22;45778;51.142;3.732;2023-07-29T02:29:31;16.70;99.90
59923;DHT22;45778;51.142;3.732;2023-07-29T02:31:59;16.60;99.90
59923;DHT22;45778;51.142;3.732;2023-07-29T02:34:24;16.60;99.90
59923;DHT22;45778;51.142;3.732;2023-07-29T02:36:50;16.70;99.90
59923;DHT22;45778;51.142;3.732;2023-07-29T02:39:16;16.70;99.90
59923;DHT22;45778;51.142;3.732;2023-07-29T02:41:42;16.70;99.90
59923;DHT22;45778;51.142;3.732;2023-07-29T02:44:07;16.60;99.90
59923;DHT22;45778;51.142;3.732;2023-07-29T02:46:33;16.50;99.90
59923;DHT22;45778;51.142;3.732;2023-07-29T02:48:58;16.60;99.90
59923;DHT22;45778;51.142;3.732;2023-07-29T02:51:24;16.60;99.90
59923;DHT22;45778;51.142;3.732;2023-07-29T02:53:50;16.60;99.90
59923;DHT22;45778;51.142;3.732;2023-07-29T02:56:16;16.60;99.90
59923;DHT22;45778;51.142;3.732;2023-07-29T02:58:41;16.60;99.90
59923;DHT22;45778;51.142;3.732;2023-07-29T03:01:07;16.60;99.90
59923;DHT22;45778;51.142;3.732;2023-07-29T03:03:33;16.60;99.90
59923;DHT22;45778;51.142;3.732;2023-07-29T03:06:06;16.60;99.90
59923;DHT22;45778;51.142;3.732;2023-07-29T03:08:33;16.50;99.90
59923;DHT22;45778;51.142;3.732;2023-07-29T03:11:04;16.60;99.90
59923;DHT22;45778;51.142;3.732;2023-07-29T03:13:30;16.60;99.90
59923;DHT22;45778;51.142;3.732;2023-07-29T03:16:07;16.50;99.90
59923;DHT22;45778;51.142;3.732;2023-07-29T03:18:33;16.50;99.90
59923;DHT22;45778;51.142;3.732;2023-07-29T03:20:59;16.60;99.90
59923;DHT22;45778;51.142;3.732;2023-07-29T03:23:25;16.60;99.90
59923;DHT22;45778;51.142;3.732;2023-07-29T03:25:50;16.60;99.90
59923;DHT22;45778;51.142;3.732;2023-07-29T03:28:25;16.60;99.90
59923;DHT22;45778;51.142;3.732;2023-07-29T03:30:53;16.60;99.90
59923;DHT22;45778;51.142;3.732;2023-07-29T03:33:18;16.60;99.90
59923;DHT22;45778;51.142;3.732;2023-07-29T03:35:44;16.60;99.90
59923;DHT22;45778;51.142;3.732;2023-07-29T03:38:11;16.60;99.90
59923;DHT22;45778;51.142;3.732;2023-07-29T03:40:37;16.60;99.90
59923;DHT22;45778;51.142;3.732;2023-07-29T03:43:04;16.60;99.90
59923;DHT22;45778;51.142;3.732;2023-07-29T03:45:29;16.70;99.90
59923;DHT22;45778;51.142;3.732;2023-07-29T03:47:55;16.60;99.90
59923;DHT22;45778;51.142;3.732;2023-07-29T03:50:21;16.60;99.90
59923;DHT22;45778;51.142;3.732;2023-07-29T03:52:47;16.60;99.90
59923;DHT22;45778;51.142;3.732;2023-07-29T03:55:13;16.70;99.90
59923;DHT22;45778;51.142;3.732;2023-07-29T03:57:38;16.70;99.90
59923;DHT22;45778;51.142;3.732;2023-07-29T04:00:05;16.70;99.90
59923;DHT22;45778;51.142;3.732;2023-07-29T04:02:31;16.70;99.90
59923;DHT22;45778;51.142;3.732;2023-07-29T04:04:57;16.60;99.90
59923;DHT22;45778;51.142;3.732;2023-07-29T04:07:22;16.60;99.90
59923;DHT22;45778;51.142;3.732;2023-07-29T04:09:48;16.60;99.90
59923;DHT22;45778;51.142;3.732;2023-07-29T04:12:15;16.70;99.90
59923;DHT22;45778;51.142;3.732;2023-07-29T04:14:41;16.70;99.90
59923;DHT22;45778;51.142;3.732;2023-07-29T04:17:07;16.80;99.90
59923;DHT22;45778;51.142;3.732;2023-07-29T04:19:32;16.80;99.90
59923;DHT22;45778;51.142;3.732;2023-07-29T04:21:58;16.90;99.90
59923;DHT22;45778;51.142;3.732;2023-07-29T04:24:24;16.90;99.90
59923;DHT22;45778;51.142;3.732;2023-07-29T04:26:50;16.80;99.90
59923;DHT22;45778;51.142;3.732;2023-07-29T04:29:16;16.80;99.90
59923;DHT22;45778;51.142;3.732;2023-07-29T04:31:42;16.80;99.90
59923;DHT22;45778;51.142;3.732;2023-07-29T04:34:08;16.80;99.90
59923;DHT22;45778;51.142;3.732;2023-07-29T04:36:34;16.70;99.90
59923;DHT22;45778;51.142;3.732;2023-07-29T04:39:00;16.70;99.90
59923;DHT22;45778;51.142;3.732;2023-07-29T04:41:26;16.70;99.90
59923;DHT22;45778;51.142;3.732;2023-07-29T04:43:51;16.70;99.90
59923;DHT22;45778;51.142;3.732;2023-07-29T04:46:17;16.70;99.90
59923;DHT22;45778;51.142;3.732;2023-07-29T04:48:43;16.70;99.90
59923;DHT22;45778;51.142;3.732;2023-07-29T04:51:09;16.70;99.90
59923;DHT22;45778;51.142;3.732;2023-07-29T04:53:34;16.70;99.90
59923;DHT22;45778;51.142;3.732;2023-07-29T04:56:02;16.70;99.90
59923;DHT22;45778;51.142;3.732;2023-07-29T04:58:28;16.80;99.90
59923;DHT22;45778;51.142;3.732;2023-07-29T05:00:55;16.80;99.90
59923;DHT22;45778;51.142;3.732;2023-07-29T05:03:21;16.80;99.90
59923;DHT22;45778;51.142;3.732;2023-07-29T05:05:47;16.90;99.90
59923;DHT22;45778;51.142;3.732;2023-07-29T05:08:12;16.90;99.90
59923;DHT22;45778;51.142;3.732;2023-07-29T05:10:38;16.90;99.90
59923;DHT22;45778;51.142;3.732;2023-07-29T05:13:04;17.00;99.90
59923;DHT22;45778;51.142;3.732;2023-07-29T05:15:29;17.00;99.90
59923;DHT22;45778;51.142;3.732;2023-07-29T05:17:56;17.00;99.90
59923;DHT22;45778;51.142;3.732;2023-07-29T05:20:21;17.00;99.90
59923;DHT22;45778;51.142;3.732;2023-07-29T05:22:47;17.20;99.90
59923;DHT22;45778;51.142;3.732;2023-07-29T05:25:13;17.20;99.90
59923;DHT22;45778;51.142;3.732;2023-07-29T05:27:38;17.20;99.90
59923;DHT22;45778;51.142;3.732;2023-07-29T05:30:05;17.30;99.90
59923;DHT22;45778;51.142;3.732;2023-07-29T05:32:32;17.40;99.90
59923;DHT22;45778;51.142;3.732;2023-07-29T05:34:57;17.50;99.90
59923;DHT22;45778;51.142;3.732;2023-07-29T05:37:23;17.60;99.90
59923;DHT22;45778;51.142;3.732;2023-07-29T05:39:48;17.60;99.90
59923;DHT22;45778;51.142;3.732;2023-07-29T05:42:14;17.80;99.90
59923;DHT22;45778;51.142;3.732;2023-07-29T05:44:40;17.80;99.90
59923;DHT22;45778;51.142;3.732;2023-07-29T05:47:05;17.90;99.90
59923;DHT22;45778;51.142;3.732;2023-07-29T05:49:31;18.00;99.90
59923;DHT22;45778;51.142;3.732;2023-07-29T05:51:57;18.10;99.90
59923;DHT22;45778;51.142;3.732;2023-07-29T05:54:23;18.10;99.90
59923;DHT22;45778;51.142;3.732;2023-07-29T05:56:49;18.20;99.90
59923;DHT22;45778;51.142;3.732;2023-07-29T05:59:14;18.20;99.90
59923;DHT22;45778;51.142;3.732;2023-07-29T06:01:40;18.10;99.90
59923;DHT22;45778;51.142;3.732;2023-07-29T06:04:06;18.10;99.90
59923;DHT22;45778;51.142;3.732;2023-07-29T06:06:31;18.00;99.90
59923;DHT22;45778;51.142;3.732;2023-07-29T06:08:57;18.10;99.90
59923;DHT22;45778;51.142;3.732;2023-07-29T06:11:23;18.20;99.90
59923;DHT22;45778;51.142;3.732;2023-07-29T06:13:49;18.10;99.90
59923;DHT22;45778;51.142;3.732;2023-07-29T06:16:14;18.00;99.90
59923;DHT22;45778;51.142;3.732;2023-07-29T06:18:40;18.10;99.90
59923;DHT22;45778;51.142;3.732;2023-07-29T06:21:05;18.10;99.90
59923;DHT22;45778;51.142;3.732;2023-07-29T06:23:33;18.00;99.90
59923;DHT22;45778;51.142;3.732;2023-07-29T06:25:59;18.00;99.90
59923;DHT22;45778;51.142;3.732;2023-07-29T06:28:26;18.00;99.90
59923;DHT22;45778;51.142;3.732;2023-07-29T06:30:52;18.00;99.90
59923;DHT22;45778;51.142;3.732;2023-07-29T06:33:18;18.00;99.90
59923;DHT22;45778;51.142;3.732;2023-07-29T06:35:44;18.10;99.90
59923;DHT22;45778;51.142;3.732;2023-07-29T06:38:09;18.10;99.90
59923;DHT22;45778;51.142;3.732;2023-07-29T06:40:35;18.30;99.90
59923;DHT22;45778;51.142;3.732;2023-07-29T06:43:00;18.40;99.90
59923;DHT22;45778;51.142;3.732;2023-07-29T06:45:26;18.50;99.90
59923;DHT22;45778;51.142;3.732;2023-07-29T06:47:52;18.70;99.90
59923;DHT22;45778;51.142;3.732;2023-07-29T06:50:18;18.70;99.90
59923;DHT22;45778;51.142;3.732;2023-07-29T06:52:44;18.70;99.90
59923;DHT22;45778;51.142;3.732;2023-07-29T06:55:10;18.70;99.90
59923;DHT22;45778;51.142;3.732;2023-07-29T06:57:35;19.00;99.90
59923;DHT22;45778;51.142;3.732;2023-07-29T07:00:02;19.20;99.90
59923;DHT22;45778;51.142;3.732;2023-07-29T07:02:28;19.30;99.90
59923;DHT22;45778;51.142;3.732;2023-07-29T07:04:53;19.30;99.90
59923;DHT22;45778;51.142;3.732;2023-07-29T07:07:19;19.50;99.90
59923;DHT22;45778;51.142;3.732;2023-07-29T07:09:45;19.60;99.90
59923;DHT22;45778;51.142;3.732;2023-07-29T07:12:10;19.50;99.90
59923;DHT22;45778;51.142;3.732;2023-07-29T07:14:37;19.50;99.90
59923;DHT22;45778;51.142;3.732;2023-07-29T07:17:02;19.50;99.90
59923;DHT22;45778;51.142;3.732;2023-07-29T07:19:28;19.70;99.90
59923;DHT22;45778;51.142;3.732;2023-07-29T07:21:54;19.70;99.90
59923;DHT22;45778;51.142;3.732;2023-07-29T07:24:19;19.70;99.90
59923;DHT22;45778;51.142;3.732;2023-07-29T07:26:45;19.80;99.90
59923;DHT22;45778;51.142;3.732;2023-07-29T07:29:11;19.70;99.90
59923;DHT22;45778;51.142;3.732;2023-07-29T07:31:36;19.80;99.90
59923;DHT22;45778;51.142;3.732;2023-07-29T07:34:02;20.00;99.90
59923;DHT22;45778;51.142;3.732;2023-07-29T07:36:29;20.20;99.90
59923;DHT22;45778;51.142;3.732;2023-07-29T07:38:54;20.20;99.90
59923;DHT22;45778;51.142;3.732;2023-07-29T07:41:20;20.00;99.90
59923;DHT22;45778;51.142;3.732;2023-07-29T07:43:45;20.10;99.90
59923;DHT22;45778;51.142;3.732;2023-07-29T07:46:11;20.10;99.90
59923;DHT22;45778;51.142;3.732;2023-07-29T07:48:38;20.10;99.90
59923;DHT22;45778;51.142;3.732;2023-07-29T07:51:11;20.30;99.90
59923;DHT22;45778;51.142;3.732;2023-07-29T07:53:37;20.20;99.90
59923;DHT22;45778;51.142;3.732;2023-07-29T07:56:03;20.10;99.90
59923;DHT22;45778;51.142;3.732;2023-07-29T07:58:29;20.10;99.90
59923;DHT22;45778;51.142;3.732;2023-07-29T08:01:01;20.10;99.90
59923;DHT22;45778;51.142;3.732;2023-07-29T08:03:27;20.00;99.90
59923;DHT22;45778;51.142;3.732;2023-07-29T08:05:53;20.20;99.90
59923;DHT22;45778;51.142;3.732;2023-07-29T08:08:18;20.10;99.90
59923;DHT22;45778;51.142;3.732;2023-07-29T08:10:44;20.20;99.90
59923;DHT22;45778;51.142;3.732;2023-07-29T08:13:10;20.30;99.90
59923;DHT22;45778;51.142;3.732;2023-07-29T08:15:35;20.50;99.90
59923;DHT22;45778;51.142;3.732;2023-07-29T08:18:01;20.80;99.90
59923;DHT22;45778;51.142;3.732;2023-07-29T08:20:27;20.90;99.90
59923;DHT22;45778;51.142;3.732;2023-07-29T08:22:52;21.10;99.90
59923;DHT22;45778;51.142;3.732;2023-07-29T08:25:18;21.20;99.90
59923;DHT22;45778;51.142;3.732;2023-07-29T08:27:43;21.30;99.90
59923;DHT22;45778;51.142;3.732;2023-07-29T08:30:09;21.30;99.90
59923;DHT22;45778;51.142;3.732;2023-07-29T08:32:35;21.20;99.90
59923;DHT22;45778;51.142;3.732;2023-07-29T08:35:01;21.20;99.90
59923;DHT22;45778;51.142;3.732;2023-07-29T08:37:27;21.40;99.90
59923;DHT22;45778;51.142;3.732;2023-07-29T08:39:52;21.60;99.90
59923;DHT22;45778;51.142;3.732;2023-07-29T08:42:20;21.80;99.90
59923;DHT22;45778;51.142;3.732;2023-07-29T08:44:49;22.00;99.90
59923;DHT22;45778;51.142;3.732;2023-07-29T08:47:15;21.90;99.90
59923;DHT22;45778;51.142;3.732;2023-07-29T08:49:41;22.10;99.90
59923;DHT22;45778;51.142;3.732;2023-07-29T08:52:09;22.00;99.90
59923;DHT22;45778;51.142;3.732;2023-07-29T08:54:35;22.10;99.90
59923;DHT22;45778;51.142;3.732;2023-07-29T08:57:01;22.40;99.90
59923;DHT22;45778;51.142;3.732;2023-07-29T08:59:28;22.30;99.90
59923;DHT22;45778;51.142;3.732;2023-07-29T09:01:54;22.20;99.90
59923;DHT22;45778;51.142;3.732;2023-07-29T09:04:22;22.00;99.90
59923;DHT22;45778;51.142;3.732;2023-07-29T09:06:50;21.90;99.90
59923;DHT22;45778;51.142;3.732;2023-07-29T09:09:16;21.70;99.90
59923;DHT22;45778;51.142;3.732;2023-07-29T09:11:41;21.50;99.90
59923;DHT22;45778;51.142;3.732;2023-07-29T09:14:07;21.40;99.90
59923;DHT22;45778;51.142;3.732;2023-07-29T09:16:33;21.40;99.90
59923;DHT22;45778;51.142;3.732;2023-07-29T09:19:03;21.30;99.90
59923;DHT22;45778;51.142;3.732;2023-07-29T09:21:29;21.10;99.90
59923;DHT22;45778;51.142;3.732;2023-07-29T09:23:56;21.00;99.90
59923;DHT22;45778;51.142;3.732;2023-07-29T09:26:25;20.80;99.90
59923;DHT22;45778;51.142;3.732;2023-07-29T09:28:56;20.60;99.90
59923;DHT22;45778;51.142;3.732;2023-07-29T09:31:26;20.40;99.90
59923;DHT22;45778;51.142;3.732;2023-07-29T09:34:00;20.30;99.90
59923;DHT22;45778;51.142;3.732;2023-07-29T09:36:27;20.20;99.90
59923;DHT22;45778;51.142;3.732;2023-07-29T09:38:54;20.00;99.90
59923;DHT22;45778;51.142;3.732;2023-07-29T09:41:22;19.70;99.90
59923;DHT22;45778;51.142;3.732;2023-07-29T09:43:58;19.50;99.90
59923;DHT22;45778;51.142;3.732;2023-07-29T09:46:25;19.30;99.90
59923;DHT22;45778;51.142;3.732;2023-07-29T09:48:57;19.20;99.90
59923;DHT22;45778;51.142;3.732;2023-07-29T09:51:23;19.00;99.90
59923;DHT22;45778;51.142;3.732;2023-07-29T09:53:50;18.90;99.90
59923;DHT22;45778;51.142;3.732;2023-07-29T09:56:17;19.00;99.90
59923;DHT22;45778;51.142;3.732;2023-07-29T09:58:48;19.10;99.90
59923;DHT22;45778;51.142;3.732;2023-07-29T10:01:14;19.30;99.90
59923;DHT22;45778;51.142;3.732;2023-07-29T10:03:40;19.70;99.90
59923;DHT22;45778;51.142;3.732;2023-07-29T10:06:07;19.90;99.90
59923;DHT22;45778;51.142;3.732;2023-07-29T10:08:33;20.10;99.90
59923;DHT22;45778;51.142;3.732;2023-07-29T10:11:08;20.40;99.90
59923;DHT22;45778;51.142;3.732;2023-07-29T10:13:35;20.70;99.90
59923;DHT22;45778;51.142;3.732;2023-07-29T10:16:01;20.70;99.90
59923;DHT22;45778;51.142;3.732;2023-07-29T10:18:31;20.60;99.90
59923;DHT22;45778;51.142;3.732;2023-07-29T10:20:58;20.40;99.90
59923;DHT22;45778;51.142;3.732;2023-07-29T10:23:26;20.40;99.90
59923;DHT22;45778;51.142;3.732;2023-07-29T10:26:02;20.40;99.90
59923;DHT22;45778;51.142;3.732;2023-07-29T10:28:30;20.60;99.90
59923;DHT22;45778;51.142;3.732;2023-07-29T10:30:57;20.80;99.90
59923;DHT22;45778;51.142;3.732;2023-07-29T10:33:22;20.60;99.90
59923;DHT22;45778;51.142;3.732;2023-07-29T10:35:48;20.30;99.90
59923;DHT22;45778;51.142;3.732;2023-07-29T10:38:15;20.00;99.90
59923;DHT22;45778;51.142;3.732;2023-07-29T10:40:50;19.80;99.90
59923;DHT22;45778;51.142;3.732;2023-07-29T10:45:49;18.80;99.90
59923;DHT22;45778;51.142;3.732;2023-07-29T10:54:15;17.60;99.90
59923;DHT22;45778;51.142;3.732;2023-07-29T10:56:43;17.50;99.90
59923;DHT22;45778;51.142;3.732;2023-07-29T11:01:39;17.70;99.90
59923;DHT22;45778;51.142;3.732;2023-07-29T11:07:19;18.20;99.90
59923;DHT22;45778;51.142;3.732;2023-07-29T11:12:34;18.80;99.90
59923;DHT22;45778;51.142;3.732;2023-07-29T11:17:34;19.20;99.90
59923;DHT22;45778;51.142;3.732;2023-07-29T11:20:03;19.40;99.90
59923;DHT22;45778;51.142;3.732;2023-07-29T11:22:29;19.50;99.90
59923;DHT22;45778;51.142;3.732;2023-07-29T11:24:55;19.90;99.90
59923;DHT22;45778;51.142;3.732;2023-07-29T11:27:21;20.20;99.90
59923;DHT22;45778;51.142;3.732;2023-07-29T11:29:47;20.50;99.90
59923;DHT22;45778;51.142;3.732;2023-07-29T11:32:13;20.40;99.90
59923;DHT22;45778;51.142;3.732;2023-07-29T11:34:41;20.40;99.90
59923;DHT22;45778;51.142;3.732;2023-07-29T11:37:10;20.60;99.90
59923;DHT22;45778;51.142;3.732;2023-07-29T11:39:43;20.70;99.90
59923;DHT22;45778;51.142;3.732;2023-07-29T11:42:13;20.70;99.90
59923;DHT22;45778;51.142;3.732;2023-07-29T11:44:40;20.90;99.90
59923;DHT22;45778;51.142;3.732;2023-07-29T11:47:07;21.00;99.90
59923;DHT22;45778;51.142;3.732;2023-07-29T11:49:39;21.00;99.90
59923;DHT22;45778;51.142;3.732;2023-07-29T11:52:09;21.20;99.90
59923;DHT22;45778;51.142;3.732;2023-07-29T11:54:39;21.50;99.90
59923;DHT22;45778;51.142;3.732;2023-07-29T11:57:08;21.60;99.90
59923;DHT22;45778;51.142;3.732;2023-07-29T11:59:36;21.90;99.90
59923;DHT22;45778;51.142;3.732;2023-07-29T12:02:06;21.80;99.90
59923;DHT22;45778;51.142;3.732;2023-07-29T12:04:33;22.20;99.90
59923;DHT22;45778;51.142;3.732;2023-07-29T12:06:59;22.40;99.90
59923;DHT22;45778;51.142;3.732;2023-07-29T12:09:25;22.80;99.90
59923;DHT22;45778;51.142;3.732;2023-07-29T12:11:52;23.20;99.90
59923;DHT22;45778;51.142;3.732;2023-07-29T12:14:18;23.40;99.90
59923;DHT22;45778;51.142;3.732;2023-07-29T12:16:44;23.50;99.90
59923;DHT22;45778;51.142;3.732;2023-07-29T12:19:13;23.80;99.90
59923;DHT22;45778;51.142;3.732;2023-07-29T12:21:41;24.10;99.90
59923;DHT22;45778;51.142;3.732;2023-07-29T12:24:07;23.90;99.90
59923;DHT22;45778;51.142;3.732;2023-07-29T12:26:33;23.80;99.90
59923;DHT22;45778;51.142;3.732;2023-07-29T12:29:17;24.70;99.90
59923;DHT22;45778;51.142;3.732;2023-07-29T12:31:45;25.40;99.90
59923;DHT22;45778;51.142;3.732;2023-07-29T12:34:18;26.00;99.90
59923;DHT22;45778;51.142;3.732;2023-07-29T12:36:45;26.20;99.90
59923;DHT22;45778;51.142;3.732;2023-07-29T12:39:23;25.80;99.90
59923;DHT22;45778;51.142;3.732;2023-07-29T12:41:51;25.30;99.90
59923;DHT22;45778;51.142;3.732;2023-07-29T12:44:17;24.60;99.90
59923;DHT22;45778;51.142;3.732;2023-07-29T12:46:43;24.40;99.90
59923;DHT22;45778;51.142;3.732;2023-07-29T12:49:09;24.70;99.90
59923;DHT22;45778;51.142;3.732;2023-07-29T12:51:35;25.30;99.90
59923;DHT22;45778;51.142;3.732;2023-07-29T12:54:03;24.80;99.90
59923;DHT22;45778;51.142;3.732;2023-07-29T12:56:29;24.90;99.90
59923;DHT22;45778;51.142;3.732;2023-07-29T12:58:56;24.70;99.90
59923;DHT22;45778;51.142;3.732;2023-07-29T13:01:23;24.40;99.90
59923;DHT22;45778;51.142;3.732;2023-07-29T13:03:49;24.00;99.90
59923;DHT22;45778;51.142;3.732;2023-07-29T13:06:15;23.70;99.90
59923;DHT22;45778;51.142;3.732;2023-07-29T13:08:42;23.30;99.90
59923;DHT22;45778;51.142;3.732;2023-07-29T13:11:07;22.60;99.90
59923;DHT22;45778;51.142;3.732;2023-07-29T13:13:33;22.40;99.90
59923;DHT22;45778;51.142;3.732;2023-07-29T13:15:59;22.60;99.90
59923;DHT22;45778;51.142;3.732;2023-07-29T13:18:25;23.00;99.90
59923;DHT22;45778;51.142;3.732;2023-07-29T13:20:51;23.60;99.90
59923;DHT22;45778;51.142;3.732;2023-07-29T13:23:16;23.10;99.90
59923;DHT22;45778;51.142;3.732;2023-07-29T13:25:42;22.40;99.90
59923;DHT22;45778;51.142;3.732;2023-07-29T13:28:11;21.80;99.90
59923;DHT22;45778;51.142;3.732;2023-07-29T13:30:39;21.30;99.90
59923;DHT22;45778;51.142;3.732;2023-07-29T13:33:04;20.90;99.90
59923;DHT22;45778;51.142;3.732;2023-07-29T13:35:30;20.40;99.90
59923;DHT22;45778;51.142;3.732;2023-07-29T13:37:57;20.00;99.90
59923;DHT22;45778;51.142;3.732;2023-07-29T13:40:23;19.40;99.90
59923;DHT22;45778;51.142;3.732;2023-07-29T13:42:48;19.30;99.90
59923;DHT22;45778;51.142;3.732;2023-07-29T13:45:14;20.10;99.90
59923;DHT22;45778;51.142;3.732;2023-07-29T13:47:40;20.60;99.90
59923;DHT22;45778;51.142;3.732;2023-07-29T13:50:06;21.30;99.90
59923;DHT22;45778;51.142;3.732;2023-07-29T13:52:36;22.40;99.90
59923;DHT22;45778;51.142;3.732;2023-07-29T13:55:02;23.10;99.90
59923;DHT22;45778;51.142;3.732;2023-07-29T13:57:28;23.70;99.90
59923;DHT22;45778;51.142;3.732;2023-07-29T13:59:54;23.70;99.90
59923;DHT22;45778;51.142;3.732;2023-07-29T14:02:20;23.20;99.90
59923;DHT22;45778;51.142;3.732;2023-07-29T14:04:45;22.90;99.90
59923;DHT22;45778;51.142;3.732;2023-07-29T14:07:11;22.80;99.90
59923;DHT22;45778;51.142;3.732;2023-07-29T14:09:36;22.90;99.90
59923;DHT22;45778;51.142;3.732;2023-07-29T14:12:04;23.70;99.90
59923;DHT22;45778;51.142;3.732;2023-07-29T14:14:30;24.70;99.90
59923;DHT22;45778;51.142;3.732;2023-07-29T14:16:56;25.40;99.90
59923;DHT22;45778;51.142;3.732;2023-07-29T14:19:23;26.10;99.90
59923;DHT22;45778;51.142;3.732;2023-07-29T14:21:48;26.30;99.90
59923;DHT22;45778;51.142;3.732;2023-07-29T14:24:14;25.80;99.90
59923;DHT22;45778;51.142;3.732;2023-07-29T14:26:41;25.90;99.90
59923;DHT22;45778;51.142;3.732;2023-07-29T14:29:07;25.70;99.90
59923;DHT22;45778;51.142;3.732;2023-07-29T14:31:32;25.70;99.90
59923;DHT22;45778;51.142;3.732;2023-07-29T14:33:58;26.20;99.90
59923;DHT22;45778;51.142;3.732;2023-07-29T14:36:36;27.00;99.90
59923;DHT22;45778;51.142;3.732;2023-07-29T14:39:02;26.60;99.90
59923;DHT22;45778;51.142;3.732;2023-07-29T14:41:27;26.60;99.90
59923;DHT22;45778;51.142;3.732;2023-07-29T14:43:53;26.30;99.90
59923;DHT22;45778;51.142;3.732;2023-07-29T14:46:18;25.40;99.90
59923;DHT22;45778;51.142;3.732;2023-07-29T14:48:44;25.40;99.90
59923;DHT22;45778;51.142;3.732;2023-07-29T14:51:12;26.30;99.90
59923;DHT22;45778;51.142;3.732;2023-07-29T14:53:38;27.50;99.90
59923;DHT22;45778;51.142;3.732;2023-07-29T14:56:04;27.60;99.90
59923;DHT22;45778;51.142;3.732;2023-07-29T14:58:30;27.40;99.90
59923;DHT22;45778;51.142;3.732;2023-07-29T15:00:55;27.10;99.90
59923;DHT22;45778;51.142;3.732;2023-07-29T15:03:21;26.70;99.90
59923;DHT22;45778;51.142;3.732;2023-07-29T15:05:47;26.10;99.90
59923;DHT22;45778;51.142;3.732;2023-07-29T15:08:13;26.10;99.90
59923;DHT22;45778;51.142;3.732;2023-07-29T15:10:38;25.40;99.90
59923;DHT22;45778;51.142;3.732;2023-07-29T15:13:04;24.80;99.90
59923;DHT22;45778;51.142;3.732;2023-07-29T15:15:30;24.20;99.90
59923;DHT22;45778;51.142;3.732;2023-07-29T15:17:56;23.60;99.90
59923;DHT22;45778;51.142;3.732;2023-07-29T15:20:22;23.40;99.90
59923;DHT22;45778;51.142;3.732;2023-07-29T15:22:48;23.60;99.90
59923;DHT22;45778;51.142;3.732;2023-07-29T15:25:14;24.90;99.90
59923;DHT22;45778;51.142;3.732;2023-07-29T15:27:39;24.80;99.90
59923;DHT22;45778;51.142;3.732;2023-07-29T15:30:06;25.90;99.90
59923;DHT22;45778;51.142;3.732;2023-07-29T15:32:32;26.70;98.60
59923;DHT22;45778;51.142;3.732;2023-07-29T15:34:58;25.70;97.60
59923;DHT22;45778;51.142;3.732;2023-07-29T15:37:27;24.60;98.90
59923;DHT22;45778;51.142;3.732;2023-07-29T15:39:52;24.30;98.50
59923;DHT22;45778;51.142;3.732;2023-07-29T15:42:19;24.00;99.60
59923;DHT22;45778;51.142;3.732;2023-07-29T15:44:45;23.80;99.90
59923;DHT22;45778;51.142;3.732;2023-07-29T15:47:11;23.80;99.90
59923;DHT22;45778;51.142;3.732;2023-07-29T15:49:38;25.40;98.40